createdAt,value
2022-09-03T00:00:25.481Z,50.95
2022-09-03T00:03:00.857Z,50.63
2022-09-03T00:05:40.056Z,51.07
2022-09-03T00:08:13.461Z,51.41
2022-09-03T00:10:47.994Z,51.49
2022-09-03T00:13:21.001Z,51.48
2022-09-03T00:15:49.706Z,51.91
2022-09-03T00:18:21.813Z,52.05
2022-09-03T00:20:54.404Z,51.92
2022-09-03T00:23:25.819Z,51.90
2022-09-03T00:25:57.609Z,52.27
2022-09-03T00:28:30.377Z,51.98
2022-09-03T00:31:07.600Z,52.51
2022-09-03T00:33:38.984Z,52.67
2022-09-03T00:36:15.971Z,52.57
2022-09-03T00:38:44.225Z,52.61
2022-09-03T00:41:22.240Z,53.21
2022-09-03T00:44:16.907Z,53.21
2022-09-03T00:46:51.309Z,53.22
2022-09-03T00:49:30.668Z,53.19
2022-09-03T00:52:11.508Z,53.11
2022-09-03T00:54:49.995Z,53.36
2022-09-03T00:57:31.955Z,53.91
2022-09-03T01:00:07.744Z,53.55
2022-09-03T01:02:47.657Z,53.64
2022-09-03T01:05:30.850Z,53.27
2022-09-03T01:08:15.898Z,53.58
2022-09-03T01:10:53.515Z,53.52
2022-09-03T01:13:24.117Z,53.82
2022-09-03T01:16:09.052Z,53.95
2022-09-03T01:18:46.581Z,54.21
2022-09-03T01:21:47.213Z,54.03
2022-09-03T01:24:43.933Z,54.15
2022-09-03T01:27:28.313Z,54.25
2022-09-03T01:30:06.065Z,54.72
2022-09-03T01:32:43.065Z,54.43
2022-09-03T01:35:19.760Z,54.56
2022-09-03T01:38:01.939Z,54.30
2022-09-03T01:40:38.514Z,54.15
2022-09-03T01:43:24.025Z,54.70
2022-09-03T01:46:00.514Z,54.90
2022-09-03T01:48:37.864Z,54.64
2022-09-03T01:51:13.036Z,54.79
2022-09-03T01:54:07.695Z,55.17
2022-09-03T01:56:56.749Z,54.95
2022-09-03T01:59:31.071Z,54.96
2022-09-03T02:02:06.981Z,55.13
2022-09-03T02:04:35.415Z,55.04
2022-09-03T02:07:05.902Z,55.38
2022-09-03T02:09:33.913Z,54.89
2022-09-03T02:12:10.005Z,55.23
2022-09-03T02:14:38.311Z,55.16
2022-09-03T02:17:08.520Z,55.12
2022-09-03T02:19:38.455Z,55.00
2022-09-03T02:22:07.220Z,55.41
2022-09-03T02:24:35.510Z,55.12
2022-09-03T02:27:03.670Z,55.14
2022-09-03T02:29:31.913Z,55.04
2022-09-03T02:32:00.107Z,55.11
2022-09-03T02:34:29.594Z,55.20
2022-09-03T02:36:57.705Z,55.36
2022-09-03T02:39:27.726Z,55.05
2022-09-03T02:41:58.659Z,55.16
2022-09-03T02:44:31.833Z,55.63
2022-09-03T02:47:01.662Z,55.71
2022-09-03T02:49:34.005Z,55.63
2022-09-03T02:52:06.100Z,55.80
2022-09-03T02:54:36.454Z,55.35
2022-09-03T02:57:04.868Z,55.55
2022-09-03T02:59:33.255Z,55.75
2022-09-03T03:02:01.435Z,55.75
2022-09-03T03:04:31.804Z,55.59
2022-09-03T03:07:00.279Z,55.93
2022-09-03T03:09:29.054Z,55.91
2022-09-03T03:11:57.231Z,56.23
2022-09-03T03:14:25.184Z,56.12
2022-09-03T03:16:53.038Z,55.99
2022-09-03T03:19:20.976Z,56.14
2022-09-03T03:21:50.323Z,56.36
2022-09-03T03:24:18.204Z,56.39
2022-09-03T03:26:46.103Z,56.55
2022-09-03T03:29:18.747Z,56.41
2022-09-03T03:31:46.651Z,56.78
2022-09-03T03:34:14.509Z,56.69
2022-09-03T03:36:42.412Z,56.93
2022-09-03T03:39:11.677Z,56.80
2022-09-03T03:41:39.632Z,56.69
2022-09-03T03:44:08.882Z,57.31
2022-09-03T03:46:38.878Z,57.24
2022-09-03T03:49:08.067Z,57.09
2022-09-03T03:51:37.325Z,57.39
2022-09-03T03:54:06.344Z,56.96
2022-09-03T03:56:36.103Z,56.71
2022-09-03T03:59:05.210Z,56.95
2022-09-03T04:01:33.450Z,57.06
2022-09-03T04:04:02.594Z,56.85
2022-09-03T04:06:30.972Z,57.13
2022-09-03T04:08:58.815Z,56.92
2022-09-03T04:11:27.376Z,57.41
2022-09-03T04:13:56.795Z,57.34
2022-09-03T04:16:25.751Z,57.39
2022-09-03T04:18:54.912Z,57.51
2022-09-03T04:21:24.408Z,57.22
2022-09-03T04:23:54.045Z,57.69
2022-09-03T04:26:23.763Z,57.73
2022-09-03T04:28:52.014Z,57.58
2022-09-03T04:31:22.552Z,57.41
2022-09-03T04:33:53.932Z,57.67
2022-09-03T04:36:24.238Z,57.71
2022-09-03T04:38:54.172Z,57.68
2022-09-03T04:41:24.906Z,57.59
2022-09-03T04:43:53.205Z,57.07
2022-09-03T04:46:23.951Z,57.62
2022-09-03T04:48:53.007Z,57.38
2022-09-03T04:51:23.365Z,57.27
2022-09-03T04:53:56.399Z,56.89
2022-09-03T04:56:26.579Z,56.93
2022-09-03T04:58:57.413Z,56.71
2022-09-03T05:01:29.147Z,56.42
2022-09-03T05:03:58.177Z,56.52
2022-09-03T05:06:26.400Z,56.28
2022-09-03T05:08:55.825Z,56.05
2022-09-03T05:11:24.648Z,56.73
2022-09-03T05:13:54.608Z,56.14
2022-09-03T05:16:24.206Z,56.30
2022-09-03T05:18:55.632Z,56.27
2022-09-03T05:21:24.707Z,55.92
2022-09-03T05:23:53.918Z,55.54
2022-09-03T05:26:25.574Z,56.09
2022-09-03T05:28:56.355Z,55.73
2022-09-03T05:31:28.302Z,55.59
2022-09-03T05:33:59.777Z,55.45
2022-09-03T05:36:30.263Z,55.35
2022-09-03T05:38:59.715Z,55.38
2022-09-03T05:41:29.114Z,55.21
2022-09-03T05:43:59.157Z,55.21
2022-09-03T05:46:31.822Z,55.20
2022-09-03T05:49:05.005Z,55.06
2022-09-03T05:51:34.062Z,55.13
2022-09-03T05:54:02.844Z,55.05
2022-09-03T05:56:33.028Z,54.55
2022-09-03T05:59:04.855Z,54.55
2022-09-03T06:01:35.137Z,54.11
2022-09-03T06:04:06.218Z,54.11
2022-09-03T06:06:36.030Z,53.43
2022-09-03T06:09:05.985Z,53.64
2022-09-03T06:11:37.418Z,54.28
2022-09-03T06:14:08.219Z,54.05
2022-09-03T06:16:37.940Z,53.91
2022-09-03T06:19:09.686Z,53.62
2022-09-03T06:21:40.186Z,53.86
2022-09-03T06:24:08.286Z,53.10
2022-09-03T06:26:36.998Z,53.30
2022-09-03T06:29:05.258Z,53.05
2022-09-03T06:31:33.485Z,53.48
2022-09-03T06:34:04.201Z,52.74
2022-09-03T06:36:34.082Z,52.58
2022-09-03T06:39:01.967Z,52.58
2022-09-03T06:41:34.249Z,52.56
2022-09-03T06:44:03.935Z,52.14
2022-09-03T06:46:33.330Z,52.14
2022-09-03T06:49:01.496Z,51.89
2022-09-03T06:51:30.940Z,51.52
2022-09-03T06:54:06.385Z,51.37
2022-09-03T06:56:39.855Z,50.99
2022-09-03T06:59:10.256Z,51.05
2022-09-03T07:01:44.336Z,51.40
2022-09-03T07:04:14.130Z,51.31
2022-09-03T07:06:44.366Z,50.72
2022-09-03T07:09:15.772Z,50.59
2022-09-03T07:11:48.036Z,50.63
2022-09-03T07:14:17.459Z,50.31
2022-09-03T07:16:46.176Z,50.46
2022-09-03T07:19:14.464Z,48.15
2022-09-03T07:21:49.270Z,43.41
2022-09-03T07:24:22.295Z,39.90
2022-09-03T07:26:50.555Z,38.88
2022-09-03T07:29:21.744Z,37.33
2022-09-03T07:31:52.791Z,35.68
2022-09-03T07:34:24.319Z,33.83
2022-09-03T07:36:54.160Z,33.96
2022-09-03T07:39:23.568Z,32.30
2022-09-03T07:41:51.668Z,31.15
2022-09-03T07:44:20.678Z,31.38
2022-09-03T07:46:51.074Z,30.64
2022-09-03T07:49:20.392Z,29.83
2022-09-03T07:51:50.838Z,29.20
2022-09-03T07:54:19.591Z,27.16
2022-09-03T07:56:48.965Z,28.06
2022-09-03T07:59:16.907Z,27.52
2022-09-03T08:01:44.904Z,27.82
2022-09-03T08:04:12.981Z,27.02
2022-09-03T08:06:42.247Z,26.89
2022-09-03T08:09:13.833Z,26.77
2022-09-03T08:11:43.798Z,26.51
2022-09-03T08:14:16.647Z,25.68
2022-09-03T08:16:47.404Z,25.57
2022-09-03T08:19:15.933Z,26.28
2022-09-03T08:21:43.833Z,27.08
2022-09-03T08:24:13.082Z,27.28
2022-09-03T08:26:50.393Z,26.68
2022-09-03T08:29:21.367Z,26.08
2022-09-03T08:31:49.965Z,25.52
2022-09-03T08:34:18.205Z,25.46
2022-09-03T08:36:47.506Z,25.55
2022-09-03T08:39:16.010Z,25.67
2022-09-03T08:42:03.377Z,25.41
2022-09-03T08:44:40.117Z,25.07
2022-09-03T08:47:13.604Z,24.86
2022-09-03T08:49:47.832Z,26.60
2022-09-03T08:52:25.028Z,27.58
2022-09-03T08:54:57.010Z,28.07
2022-09-03T08:57:26.885Z,27.53
2022-09-03T08:59:57.378Z,25.98
2022-09-03T09:02:34.570Z,25.00
2022-09-03T09:05:14.252Z,24.21
2022-09-03T09:07:53.395Z,24.28
2022-09-03T09:10:28.409Z,24.14
2022-09-03T09:13:10.756Z,24.44
2022-09-03T09:15:50.842Z,24.35
2022-09-03T09:18:27.113Z,26.39
2022-09-03T09:21:00.688Z,28.05
2022-09-03T09:23:32.439Z,27.87
2022-09-03T09:26:06.768Z,26.85
2022-09-03T09:28:37.767Z,26.71
2022-09-03T09:31:08.999Z,26.55
2022-09-03T09:33:37.617Z,26.93
2022-09-03T09:36:11.728Z,27.19
2022-09-03T09:38:40.892Z,27.71
2022-09-03T09:41:13.663Z,28.73
2022-09-03T09:43:42.246Z,29.59
2022-09-03T09:46:16.668Z,30.26
2022-09-03T09:48:52.032Z,30.73
2022-09-03T09:51:22.489Z,30.54
2022-09-03T09:54:02.583Z,30.61
2022-09-03T09:56:31.105Z,30.56
2022-09-03T09:59:07.079Z,30.09
2022-09-03T10:01:39.368Z,28.90
2022-09-03T10:04:12.426Z,28.95
2022-09-03T10:06:57.294Z,28.76
2022-09-03T10:09:31.473Z,28.19
2022-09-03T10:12:11.311Z,28.47
2022-09-03T10:14:43.646Z,27.73
2022-09-03T10:17:20.716Z,28.40
2022-09-03T10:20:20.588Z,28.72
2022-09-03T10:22:57.007Z,28.91
2022-09-03T10:25:30.758Z,28.92
2022-09-03T10:28:01.481Z,28.85
2022-09-03T10:30:31.079Z,28.44
2022-09-03T10:33:10.277Z,29.28
2022-09-03T10:35:47.244Z,29.76
2022-09-03T10:38:23.708Z,30.61
2022-09-03T10:40:58.089Z,30.77
2022-09-03T10:43:46.732Z,30.42
2022-09-03T10:46:23.812Z,30.23
2022-09-03T10:49:20.167Z,30.28
2022-09-03T10:51:54.498Z,29.93
2022-09-03T10:54:46.722Z,30.11
2022-09-03T10:57:26.542Z,30.06
2022-09-03T11:00:06.197Z,30.20
2022-09-03T11:02:56.095Z,30.68
2022-09-03T11:05:31.266Z,31.27
2022-09-03T11:08:03.585Z,30.70
2022-09-03T11:10:34.233Z,30.64
2022-09-03T11:13:10.120Z,31.00
2022-09-03T11:15:44.213Z,30.80
2022-09-03T11:18:21.122Z,30.82
2022-09-03T11:20:55.066Z,30.44
2022-09-03T11:23:25.503Z,30.29
2022-09-03T11:25:59.851Z,30.00
2022-09-03T11:28:40.508Z,29.89
2022-09-03T11:31:19.962Z,30.58
2022-09-03T11:33:53.288Z,30.58
2022-09-03T11:36:31.886Z,30.45
2022-09-03T11:39:00.553Z,30.29
2022-09-03T11:41:30.134Z,29.96
2022-09-03T11:44:02.457Z,28.39
2022-09-03T11:46:33.249Z,28.28
2022-09-03T11:49:12.521Z,28.47
2022-09-03T11:51:44.144Z,28.39
2022-09-03T11:54:27.287Z,28.37
2022-09-03T11:57:11.718Z,28.27
2022-09-03T11:59:41.653Z,28.33
2022-09-03T12:02:22.115Z,28.41
2022-09-03T12:05:01.144Z,27.44
2022-09-03T12:07:43.999Z,27.57
2022-09-03T12:10:27.546Z,28.36
2022-09-03T12:13:14.145Z,28.48
2022-09-03T12:16:29.070Z,28.03
2022-09-03T12:19:02.509Z,28.43
2022-09-03T12:21:30.787Z,28.58
2022-09-03T12:24:03.716Z,28.24
2022-09-03T12:26:31.802Z,28.35
2022-09-03T12:29:01.327Z,28.47
2022-09-03T12:31:31.482Z,28.42
2022-09-03T12:34:01.882Z,27.95
2022-09-03T12:36:39.877Z,28.15
2022-09-03T12:39:13.388Z,27.85
2022-09-03T12:41:57.338Z,27.67
2022-09-03T12:44:31.444Z,27.23
2022-09-03T12:49:52.551Z,27.90
2022-09-03T12:52:26.425Z,27.78
2022-09-03T12:54:59.909Z,28.05
2022-09-03T12:57:33.123Z,27.64
2022-09-03T13:00:06.906Z,27.83
2022-09-03T13:02:41.196Z,27.85
2022-09-03T13:05:15.723Z,28.52
2022-09-03T13:07:51.498Z,28.01
2022-09-03T13:10:27.532Z,28.14
2022-09-03T13:13:00.875Z,27.76
2022-09-03T13:15:30.073Z,27.95
2022-09-03T13:18:18.313Z,28.21
2022-09-03T13:21:09.362Z,28.43
2022-09-03T13:23:50.698Z,28.77
2022-09-03T13:26:30.736Z,28.59
2022-09-03T13:29:16.616Z,28.24
2022-09-03T13:31:49.124Z,28.12
2022-09-03T13:34:23.717Z,27.59
2022-09-03T13:36:55.813Z,27.27
2022-09-03T13:39:29.889Z,27.70
2022-09-03T13:42:07.355Z,27.50
2022-09-03T13:44:43.887Z,27.34
2022-09-03T13:47:24.647Z,27.12
2022-09-03T13:50:13.663Z,26.93
2022-09-03T13:52:47.686Z,26.49
2022-09-03T13:55:23.357Z,26.71
2022-09-03T13:58:01.709Z,26.40
2022-09-03T14:00:34.115Z,25.87
2022-09-03T14:03:12.087Z,25.99
2022-09-03T14:06:01.648Z,25.76
2022-09-03T14:08:38.923Z,26.20
2022-09-03T14:11:21.316Z,26.77
2022-09-03T14:14:03.357Z,27.17
2022-09-03T14:16:41.217Z,27.60
2022-09-03T14:19:16.566Z,27.58
2022-09-03T14:21:48.848Z,27.72
2022-09-03T14:24:23.357Z,27.89
2022-09-03T14:26:53.743Z,27.81
2022-09-03T14:29:29.813Z,27.99
2022-09-03T14:32:24.345Z,27.90
2022-09-03T14:35:22.486Z,27.86
2022-09-03T14:38:26.311Z,27.87
2022-09-03T14:41:04.735Z,27.66
2022-09-03T14:43:57.934Z,28.01
2022-09-03T14:46:38.308Z,28.21
2022-09-03T14:49:38.526Z,28.39
2022-09-03T14:52:22.760Z,28.28
2022-09-03T14:55:15.168Z,28.20
2022-09-03T14:58:07.120Z,27.58
2022-09-03T15:00:47.428Z,27.70
2022-09-03T15:03:58.387Z,27.55
2022-09-03T15:06:36.916Z,27.77
2022-09-03T15:09:23.649Z,27.74
2022-09-03T15:11:57.013Z,27.95
2022-09-03T15:14:30.989Z,27.99
2022-09-03T15:17:02.731Z,28.18
2022-09-03T15:19:56.811Z,28.08
2022-09-03T15:22:47.973Z,27.98
2022-09-03T15:25:26.468Z,28.62
2022-09-03T15:54:54.725Z,28.87
2022-09-03T15:57:27.638Z,28.90
2022-09-03T16:00:02.224Z,28.57
2022-09-03T16:02:35.057Z,28.54
2022-09-03T16:05:14.316Z,29.02
2022-09-03T16:07:58.644Z,29.34
2022-09-03T16:10:43.939Z,29.10
2022-09-03T16:13:40.277Z,29.17
2022-09-03T16:16:12.055Z,29.24
2022-09-03T16:18:47.956Z,29.74
2022-09-03T16:21:27.677Z,29.93
2022-09-03T16:24:01.766Z,29.68
2022-09-03T16:26:38.409Z,30.01
2022-09-03T16:29:10.464Z,29.85
2022-09-03T16:31:49.471Z,30.19
2022-09-03T16:34:29.499Z,30.03
2022-09-03T16:37:07.871Z,30.05
2022-09-03T16:39:46.136Z,30.06
2022-09-03T16:42:26.283Z,30.14
2022-09-03T16:45:05.806Z,29.94
2022-09-03T16:47:50.518Z,30.10
2022-09-03T16:50:33.011Z,30.16
2022-09-03T16:53:10.733Z,30.23
2022-09-03T16:56:00.748Z,30.48
2022-09-03T16:58:40.878Z,30.53
2022-09-03T17:01:24.336Z,30.67
2022-09-03T17:04:22.505Z,30.66
2022-09-03T17:07:09.687Z,31.28
2022-09-03T17:09:56.673Z,31.16
2022-09-03T17:12:34.395Z,31.15
2022-09-03T17:15:23.172Z,31.49
2022-09-03T17:18:18.758Z,31.68
2022-09-03T17:20:54.082Z,31.97
2022-09-03T17:23:38.152Z,32.06
2022-09-03T17:26:12.862Z,32.12
2022-09-03T17:28:59.007Z,32.49
2022-09-03T17:31:46.969Z,32.56
2022-09-03T17:34:29.587Z,32.72
2022-09-03T17:37:09.529Z,32.96
2022-09-03T17:40:05.242Z,32.88
2022-09-03T17:42:45.567Z,33.16
2022-09-03T17:45:18.247Z,33.40
2022-09-03T17:48:23.825Z,33.66
2022-09-03T17:50:58.373Z,33.56
2022-09-03T17:53:41.114Z,33.58
2022-09-03T17:56:20.096Z,33.61
2022-09-03T17:58:54.112Z,33.80
2022-09-03T18:01:27.226Z,33.70
2022-09-03T18:04:03.364Z,33.96
2022-09-03T18:06:43.472Z,34.00
2022-09-03T18:09:23.374Z,34.42
2022-09-03T18:11:57.796Z,34.15
2022-09-03T18:14:31.903Z,34.27
2022-09-03T18:17:05.656Z,34.20
2022-09-03T18:19:57.838Z,34.63
2022-09-03T18:22:50.957Z,34.78
2022-09-03T18:25:36.544Z,34.87
2022-09-03T18:28:27.686Z,34.95
2022-09-03T18:31:13.405Z,35.19
2022-09-03T18:33:58.867Z,35.25
2022-09-03T18:36:46.012Z,35.38
2022-09-03T18:39:35.919Z,35.50
2022-09-03T18:42:31.351Z,35.64
2022-09-03T18:45:24.291Z,36.01
2022-09-03T18:48:25.691Z,36.18
2022-09-03T18:51:17.704Z,35.96
2022-09-03T18:54:20.375Z,36.41
2022-09-03T18:57:07.715Z,36.33
2022-09-03T19:00:23.323Z,36.40
2022-09-03T19:03:26.059Z,36.87
2022-09-03T19:06:21.858Z,37.15
2022-09-03T19:09:15.913Z,37.02
2022-09-03T19:12:13.031Z,37.15
2022-09-03T19:15:08.005Z,37.41
2022-09-03T19:18:12.137Z,37.40
2022-09-03T19:21:00.546Z,37.67
2022-09-03T19:23:45.960Z,37.60
2022-09-03T19:26:40.012Z,37.72
2022-09-03T19:29:37.650Z,38.02
2022-09-03T19:32:29.936Z,37.94
2022-09-03T19:35:27.643Z,38.18
2022-09-03T19:38:24.362Z,38.41
2022-09-03T19:41:19.943Z,38.39
2022-09-03T19:44:18.739Z,38.60
2022-09-03T19:47:08.795Z,38.77
2022-09-03T19:50:06.261Z,38.81
2022-09-03T19:53:02.052Z,38.99
2022-09-03T19:55:52.932Z,38.88
2022-09-03T19:58:44.085Z,39.20
2022-09-03T20:01:31.968Z,39.12
2022-09-03T20:04:22.647Z,39.32
2022-09-03T20:07:08.064Z,39.22
2022-09-03T20:09:58.584Z,39.27
2022-09-03T20:12:31.278Z,39.33
2022-09-03T20:14:59.449Z,39.45
2022-09-03T20:17:39.490Z,39.51
2022-09-03T20:20:25.259Z,39.35
2022-09-03T20:22:59.359Z,39.64
2022-09-03T20:26:01.533Z,39.87
2022-09-03T20:28:46.602Z,40.08
2022-09-03T20:31:22.946Z,39.83
2022-09-03T20:34:09.211Z,39.91
2022-09-03T20:36:51.897Z,40.36
2022-09-03T20:39:37.352Z,40.33
2022-09-03T20:42:19.442Z,40.69
2022-09-03T20:44:55.387Z,40.68
2022-09-03T20:47:45.287Z,41.16
2022-09-03T20:50:25.737Z,41.60
2022-09-03T20:53:05.439Z,41.82
2022-09-03T20:55:43.633Z,41.89
2022-09-03T20:58:18.044Z,42.25
2022-09-03T21:00:52.232Z,42.33
2022-09-03T21:03:23.002Z,42.71
2022-09-03T21:06:13.026Z,43.32
2022-09-03T21:09:03.176Z,44.03
2022-09-03T21:11:39.039Z,44.07
2022-09-03T21:14:22.120Z,44.66
2022-09-03T21:17:01.262Z,44.85
2022-09-03T21:19:50.410Z,45.59
2022-09-03T21:22:30.576Z,45.80
2022-09-03T21:25:04.566Z,46.44
2022-09-03T21:27:39.520Z,47.06
2022-09-03T21:30:10.325Z,47.47
2022-09-03T21:32:45.622Z,47.94
2022-09-03T21:35:21.884Z,48.18
2022-09-03T21:37:58.606Z,48.98
2022-09-03T21:40:32.303Z,48.80
2022-09-03T21:43:10.508Z,50.34
2022-09-03T21:45:46.313Z,50.43
2022-09-03T21:48:21.471Z,50.63
2022-09-03T21:50:55.678Z,51.99
2022-09-03T21:53:35.115Z,52.00
2022-09-03T21:56:30.431Z,52.72
2022-09-03T21:59:09.441Z,52.47
2022-09-03T22:01:50.789Z,53.14
2022-09-03T22:04:18.702Z,53.67
2022-09-03T22:06:57.621Z,54.30
2022-09-03T22:09:33.059Z,55.10
2022-09-03T22:12:07.192Z,54.63
2022-09-03T22:14:43.183Z,55.32
2022-09-03T22:17:16.892Z,55.61
2022-09-03T22:19:45.671Z,55.69
2022-09-03T22:22:19.292Z,56.06
2022-09-03T22:24:55.208Z,55.87
2022-09-03T22:27:30.071Z,56.54
2022-09-03T22:30:06.723Z,56.45
2022-09-03T22:32:46.639Z,56.67
2022-09-03T22:35:37.563Z,57.12
2022-09-03T22:38:34.062Z,57.61
2022-09-03T22:41:12.325Z,57.89
2022-09-03T22:43:43.654Z,58.13
2022-09-03T22:46:14.584Z,57.96
2022-09-03T22:49:11.961Z,58.04
2022-09-03T22:52:06.748Z,58.65
2022-09-03T22:54:53.973Z,59.17
2022-09-03T22:57:27.403Z,59.24
2022-09-03T23:00:00.906Z,59.31
2022-09-03T23:02:31.211Z,58.99
2022-09-03T23:05:06.355Z,59.34
2022-09-03T23:07:46.450Z,59.22
2022-09-03T23:10:24.366Z,59.28
2022-09-03T23:13:05.714Z,59.71
2022-09-03T23:15:35.724Z,59.73
2022-09-03T23:18:08.941Z,59.39
2022-09-03T23:20:40.329Z,59.14
2022-09-03T23:23:16.608Z,59.67
2022-09-03T23:25:48.973Z,60.01
2022-09-03T23:28:25.376Z,60.06
2022-09-03T23:30:54.844Z,60.15
2022-09-03T23:33:22.708Z,59.65
2022-09-03T23:35:57.860Z,60.70
2022-09-03T23:38:36.685Z,60.49
2022-09-03T23:41:09.048Z,60.29
2022-09-03T23:44:01.695Z,60.35
2022-09-03T23:46:37.892Z,60.21
2022-09-03T23:49:27.153Z,59.89
2022-09-03T23:52:11.056Z,60.46
2022-09-03T23:54:41.148Z,60.48
2022-09-03T23:57:19.807Z,60.57
